createdAt,value
2019-05-26T00:02:28.496Z,5.33
2019-05-26T00:04:57.848Z,3.10
2019-05-26T00:07:30.515Z,3.03
2019-05-26T00:09:58.292Z,3.00
2019-05-26T00:12:27.634Z,3.77
2019-05-26T00:14:57.034Z,4.33
2019-05-26T00:17:26.396Z,4.07
2019-05-26T00:19:55.715Z,3.90
2019-05-26T00:22:25.116Z,5.10
2019-05-26T00:24:54.491Z,3.80
2019-05-26T00:27:23.769Z,3.10
2019-05-26T00:29:53.165Z,6.43
2019-05-26T00:32:22.576Z,3.67
2019-05-26T00:34:51.953Z,4.80
2019-05-26T00:37:21.333Z,4.43
2019-05-26T00:39:50.653Z,5.80
2019-05-26T00:42:19.987Z,4.00
2019-05-26T00:44:49.375Z,7.27
2019-05-26T00:47:18.796Z,3.10
2019-05-26T00:49:48.117Z,3.30
2019-05-26T00:52:17.468Z,3.47
2019-05-26T00:54:46.854Z,4.17
2019-05-26T00:57:16.277Z,4.63
2019-05-26T00:59:45.668Z,3.87
2019-05-26T01:02:15.114Z,4.27
2019-05-26T01:04:44.524Z,4.20
2019-05-26T01:07:13.919Z,4.10
2019-05-26T01:09:43.355Z,4.23
2019-05-26T01:12:12.688Z,4.73
2019-05-26T01:14:42.017Z,4.50
2019-05-26T01:17:11.298Z,5.10
2019-05-26T01:19:40.773Z,5.63
2019-05-26T01:22:10.166Z,4.40
2019-05-26T01:24:39.579Z,5.27
2019-05-26T01:27:08.903Z,6.10
2019-05-26T01:29:38.288Z,4.73
2019-05-26T01:32:07.691Z,3.97
2019-05-26T01:34:37.077Z,3.80
2019-05-26T01:37:06.988Z,7.37
2019-05-26T01:39:36.729Z,6.17
2019-05-26T01:42:06.125Z,4.87
2019-05-26T01:44:35.475Z,4.27
2019-05-26T01:47:04.866Z,5.23
2019-05-26T01:49:34.178Z,4.20
2019-05-26T01:52:03.539Z,3.60
2019-05-26T01:54:32.850Z,4.13
2019-05-26T01:57:02.227Z,4.27
2019-05-26T01:59:31.628Z,4.10
2019-05-26T02:02:01.028Z,5.47
2019-05-26T02:04:30.372Z,5.80
2019-05-26T02:06:59.669Z,3.93
2019-05-26T02:09:29.043Z,5.17
2019-05-26T02:11:58.399Z,3.97
2019-05-26T02:14:27.778Z,3.67
2019-05-26T02:16:57.162Z,6.37
2019-05-26T02:19:26.535Z,5.47
2019-05-26T02:21:56.294Z,5.03
2019-05-26T02:24:25.697Z,6.90
2019-05-26T02:26:58.141Z,5.83
2019-05-26T02:29:27.595Z,6.47
2019-05-26T02:31:57.003Z,6.07
2019-05-26T02:34:26.376Z,6.20
2019-05-26T02:36:55.744Z,6.03
2019-05-26T02:39:25.142Z,6.63
2019-05-26T02:41:54.468Z,6.23
2019-05-26T02:44:23.850Z,6.27
2019-05-26T02:46:53.243Z,7.40
2019-05-26T02:49:22.567Z,6.90
2019-05-26T02:51:51.984Z,6.60
2019-05-26T02:54:21.352Z,7.70
2019-05-26T02:56:50.867Z,7.63
2019-05-26T02:59:21.209Z,7.20
2019-05-26T03:02:03.308Z,6.73
2019-05-26T03:04:21.631Z,6.97
2019-05-26T03:06:51.346Z,8.77
2019-05-26T03:09:23.533Z,6.40
2019-05-26T03:11:54.748Z,7.63
2019-05-26T03:14:26.223Z,6.00
2019-05-26T03:16:58.682Z,6.70
2019-05-26T03:19:28.214Z,6.13
2019-05-26T03:21:59.306Z,5.43
2019-05-26T03:24:30.013Z,5.20
2019-05-26T03:26:59.493Z,7.57
2019-05-26T03:29:28.845Z,7.73
2019-05-26T03:31:58.264Z,6.43
2019-05-26T03:34:27.639Z,7.63
2019-05-26T03:36:56.975Z,8.40
2019-05-26T03:39:43.688Z,6.70
2019-05-26T03:41:57.325Z,7.40
2019-05-26T03:44:26.686Z,6.63
2019-05-26T03:46:56.083Z,8.77
2019-05-26T03:49:25.430Z,7.77
2019-05-26T03:51:54.802Z,7.07
2019-05-26T03:54:24.165Z,6.93
2019-05-26T03:56:53.547Z,5.07
2019-05-26T03:59:22.973Z,5.07
2019-05-26T04:01:57.352Z,6.23
2019-05-26T04:04:23.478Z,5.60
2019-05-26T04:06:52.935Z,5.00
2019-05-26T04:09:22.329Z,4.40
2019-05-26T04:11:51.704Z,4.20
2019-05-26T04:14:21.071Z,5.17
2019-05-26T04:16:50.431Z,6.87
2019-05-26T04:19:19.838Z,4.60
2019-05-26T04:21:49.296Z,5.87
2019-05-26T04:24:18.643Z,6.70
2019-05-26T04:26:48.028Z,5.93
2019-05-26T04:29:17.317Z,4.53
2019-05-26T04:31:46.587Z,4.23
2019-05-26T04:34:15.994Z,4.77
2019-05-26T04:36:45.332Z,3.90
2019-05-26T04:39:14.863Z,3.70
2019-05-26T04:41:44.385Z,5.73
2019-05-26T04:44:13.703Z,5.37
2019-05-26T04:46:42.998Z,5.20
2019-05-26T04:49:12.336Z,4.07
2019-05-26T04:51:41.712Z,5.93
2019-05-26T04:54:11.124Z,4.40
2019-05-26T04:56:40.513Z,5.90
2019-05-26T04:59:09.872Z,4.23
2019-05-26T05:01:39.324Z,6.43
2019-05-26T05:04:11.752Z,6.40
2019-05-26T05:06:41.054Z,4.97
2019-05-26T05:09:10.411Z,4.67
2019-05-26T05:11:39.824Z,8.20
2019-05-26T05:14:09.185Z,5.17
2019-05-26T05:16:38.606Z,3.50
2019-05-26T05:19:07.957Z,7.00
2019-05-26T05:21:37.260Z,5.57
2019-05-26T05:24:06.617Z,7.13
2019-05-26T05:26:36.077Z,9.80
2019-05-26T05:29:05.432Z,5.43
2019-05-26T05:31:34.750Z,8.37
2019-05-26T05:34:04.124Z,7.80
2019-05-26T05:36:33.499Z,5.80
2019-05-26T05:39:02.890Z,4.17
2019-05-26T05:41:32.279Z,8.37
2019-05-26T05:44:01.559Z,9.17
2019-05-26T05:46:30.932Z,6.27
2019-05-26T05:49:00.220Z,5.00
2019-05-26T05:51:29.615Z,6.40
2019-05-26T05:53:58.994Z,7.67
2019-05-26T05:56:28.360Z,8.27
2019-05-26T05:58:57.712Z,6.30
2019-05-26T06:01:27.096Z,8.93
2019-05-26T06:03:56.428Z,7.97
2019-05-26T06:06:25.823Z,9.17
2019-05-26T06:08:55.125Z,9.50
2019-05-26T06:11:24.495Z,6.73
2019-05-26T06:13:53.835Z,7.13
2019-05-26T06:16:23.215Z,7.97
2019-05-26T06:18:52.534Z,7.60
2019-05-26T06:21:21.944Z,7.90
2019-05-26T06:23:51.530Z,10.60
2019-05-26T06:26:20.937Z,7.30
2019-05-26T06:28:52.444Z,6.33
2019-05-26T06:31:21.349Z,8.25
2019-05-26T06:33:50.701Z,11.18
2019-05-26T06:36:20.112Z,10.95
2019-05-26T06:38:49.462Z,6.87
2019-05-26T06:41:32.420Z,7.83
2019-05-26T06:43:49.888Z,11.45
2019-05-26T06:46:18.872Z,10.65
2019-05-26T06:48:48.115Z,8.43
2019-05-26T06:51:17.496Z,8.50
2019-05-26T06:53:46.858Z,5.85
2019-05-26T06:56:16.252Z,8.43
2019-05-26T06:58:45.658Z,8.70
2019-05-26T07:01:15.070Z,10.03
2019-05-26T07:03:44.422Z,8.03
2019-05-26T07:06:13.884Z,9.75
2019-05-26T07:08:43.151Z,7.97
2019-05-26T07:11:12.504Z,8.53
2019-05-26T07:13:41.913Z,8.43
2019-05-26T07:16:11.306Z,8.40
2019-05-26T07:18:40.728Z,7.95
2019-05-26T07:21:10.085Z,8.50
2019-05-26T07:23:39.459Z,7.78
2019-05-26T07:26:08.859Z,9.93
2019-05-26T07:28:38.206Z,10.65
2019-05-26T07:31:07.581Z,6.95
2019-05-26T07:33:36.905Z,7.83
2019-05-26T07:36:06.301Z,11.12
2019-05-26T07:38:35.654Z,7.03
2019-05-26T07:41:05.031Z,11.20
2019-05-26T07:43:34.442Z,10.45
2019-05-26T07:46:03.847Z,8.43
2019-05-26T07:48:35.764Z,7.03
2019-05-26T07:51:04.325Z,12.03
2019-05-26T07:53:33.709Z,11.50
2019-05-26T07:56:03.200Z,9.33
2019-05-26T07:58:32.547Z,9.85
2019-05-26T08:01:01.941Z,10.20
2019-05-26T08:03:31.309Z,8.93
2019-05-26T08:06:00.672Z,11.28
2019-05-26T08:08:29.975Z,9.48
2019-05-26T08:10:59.343Z,12.80
2019-05-26T08:13:28.786Z,10.50
2019-05-26T08:15:58.199Z,12.30
2019-05-26T08:18:27.746Z,12.63
2019-05-26T08:20:57.291Z,11.70
2019-05-26T08:23:26.646Z,13.48
2019-05-26T08:25:56.357Z,14.30
2019-05-26T08:28:25.699Z,13.75
2019-05-26T08:30:55.116Z,14.43
2019-05-26T08:33:24.449Z,16.82
2019-05-26T08:35:53.824Z,14.33
2019-05-26T08:38:23.149Z,12.30
2019-05-26T08:40:52.512Z,15.53
2019-05-26T08:43:21.971Z,15.83
2019-05-26T08:45:51.398Z,12.10
2019-05-26T08:48:20.775Z,12.65
2019-05-26T08:50:50.149Z,14.93
2019-05-26T08:53:19.540Z,12.30
2019-05-26T08:55:48.936Z,15.32
2019-05-26T08:58:18.342Z,14.43
2019-05-26T09:00:47.724Z,13.45
2019-05-26T09:03:17.122Z,13.95
2019-05-26T09:05:46.515Z,14.98
2019-05-26T09:08:15.889Z,17.90
2019-05-26T09:10:45.325Z,12.30
2019-05-26T09:13:14.716Z,10.70
2019-05-26T09:15:44.132Z,17.30
2019-05-26T09:18:13.982Z,11.83
2019-05-26T09:20:43.389Z,9.55
2019-05-26T09:23:12.685Z,13.10
2019-05-26T09:25:42.089Z,14.38
2019-05-26T09:28:11.504Z,13.60
2019-05-26T09:30:40.898Z,14.25
2019-05-26T09:33:10.262Z,12.98
2019-05-26T09:35:39.639Z,11.88
2019-05-26T09:38:09.026Z,7.40
2019-05-26T09:40:38.410Z,10.55
2019-05-26T09:43:16.168Z,10.40
2019-05-26T09:45:38.814Z,12.18
2019-05-26T09:48:08.236Z,12.60
2019-05-26T09:50:37.575Z,10.28
2019-05-26T09:53:06.965Z,11.50
2019-05-26T09:55:36.357Z,10.63
2019-05-26T09:58:06.947Z,10.13
2019-05-26T10:00:36.351Z,12.43
2019-05-26T10:03:05.741Z,12.05
2019-05-26T10:05:39.052Z,11.57
2019-05-26T10:08:10.705Z,5.40
2019-05-26T10:10:40.154Z,9.50
2019-05-26T10:13:09.531Z,9.33
2019-05-26T10:15:38.931Z,8.35
2019-05-26T10:18:08.287Z,7.25
2019-05-26T10:20:37.690Z,7.40
2019-05-26T10:23:06.983Z,10.13
2019-05-26T10:25:36.368Z,8.38
2019-05-26T10:28:05.618Z,7.40
2019-05-26T10:30:35.068Z,8.25
2019-05-26T10:33:04.480Z,6.85
2019-05-26T10:35:34.017Z,7.30
2019-05-26T10:38:03.394Z,6.75
2019-05-26T10:40:32.760Z,8.80
2019-05-26T10:43:02.132Z,7.45
2019-05-26T10:45:34.322Z,5.55
2019-05-26T10:48:02.630Z,5.25
2019-05-26T10:50:31.941Z,7.85
2019-05-26T10:53:01.409Z,5.28
2019-05-26T10:55:30.768Z,4.40
2019-05-26T10:58:00.173Z,8.93
2019-05-26T11:00:32.810Z,5.15
2019-05-26T11:03:00.595Z,5.75
2019-05-26T11:05:30.007Z,5.53
2019-05-26T11:07:59.359Z,5.22
2019-05-26T11:10:28.796Z,6.25
2019-05-26T11:12:58.327Z,6.92
2019-05-26T11:15:27.735Z,5.72
2019-05-26T11:17:57.211Z,6.42
2019-05-26T11:20:26.621Z,4.55
2019-05-26T11:22:58.262Z,5.30
2019-05-26T11:25:27.664Z,6.53
2019-05-26T11:27:57.071Z,5.28
2019-05-26T11:30:26.682Z,6.15
2019-05-26T11:32:59.453Z,5.05
2019-05-26T11:35:27.115Z,5.55
2019-05-26T11:37:56.526Z,5.80
2019-05-26T11:40:25.902Z,6.92
2019-05-26T11:42:55.239Z,4.40
2019-05-26T11:45:24.619Z,6.55
2019-05-26T11:47:54.441Z,8.18
2019-05-26T11:50:23.966Z,7.17
2019-05-26T11:52:53.515Z,5.35
2019-05-26T11:55:22.917Z,4.25
2019-05-26T11:57:52.213Z,4.75
2019-05-26T12:00:21.893Z,5.40
2019-05-26T12:02:51.266Z,4.78
2019-05-26T12:05:20.705Z,2.90
2019-05-26T12:07:50.074Z,7.05
2019-05-26T12:10:20.299Z,5.53
2019-05-26T12:12:49.674Z,5.80
2019-05-26T12:15:19.975Z,5.40
2019-05-26T12:17:49.337Z,6.55
2019-05-26T12:20:18.821Z,5.83
2019-05-26T12:22:48.215Z,5.05
2019-05-26T12:25:17.585Z,5.37
2019-05-26T12:27:46.958Z,5.53
2019-05-26T12:30:16.798Z,5.03
2019-05-26T12:32:46.231Z,4.17
2019-05-26T12:35:15.800Z,6.40
2019-05-26T12:37:48.344Z,4.90
2019-05-26T12:40:16.642Z,3.37
2019-05-26T12:42:46.063Z,4.28
2019-05-26T12:45:16.284Z,5.78
2019-05-26T12:47:45.607Z,4.87
2019-05-26T12:50:15.999Z,5.80
2019-05-26T12:52:45.356Z,6.62
2019-05-26T12:55:14.871Z,3.47
2019-05-26T12:57:44.257Z,3.83
2019-05-26T13:00:13.830Z,8.00
2019-05-26T13:02:43.314Z,4.60
2019-05-26T13:05:12.682Z,8.88
2019-05-26T13:07:42.105Z,5.12
2019-05-26T13:10:11.958Z,4.53
2019-05-26T13:12:41.369Z,2.50
2019-05-26T13:15:11.562Z,3.92
2019-05-26T13:17:40.978Z,4.17
2019-05-26T13:20:12.421Z,5.83
2019-05-26T13:22:41.881Z,7.95
2019-05-26T13:25:13.458Z,8.85
2019-05-26T13:27:42.853Z,3.65
2019-05-26T13:30:13.164Z,3.95
2019-05-26T13:32:42.481Z,8.23
2019-05-26T13:35:12.385Z,5.22
2019-05-26T13:37:41.787Z,3.35
2019-05-26T13:40:11.402Z,3.62
2019-05-26T13:42:40.803Z,6.53
2019-05-26T13:45:21.903Z,7.28
2019-05-26T13:47:44.057Z,4.50
2019-05-26T13:50:14.135Z,4.53
2019-05-26T13:52:43.537Z,4.08
2019-05-26T13:55:13.563Z,3.40
2019-05-26T13:57:42.909Z,3.67
2019-05-26T14:00:14.401Z,2.85
2019-05-26T14:02:43.888Z,3.55
2019-05-26T14:05:14.393Z,4.78
2019-05-26T14:07:43.869Z,5.67
2019-05-26T14:10:14.823Z,2.95
2019-05-26T14:12:44.492Z,3.58
2019-05-26T14:15:13.996Z,3.62
2019-05-26T14:17:44.161Z,2.77
2019-05-26T14:20:13.884Z,3.00
2019-05-26T14:22:43.274Z,2.70
2019-05-26T14:25:15.604Z,4.55
2019-05-26T14:27:43.720Z,4.35
2019-05-26T14:30:13.375Z,3.58
2019-05-26T14:32:42.783Z,3.50
2019-05-26T14:35:12.334Z,3.35
2019-05-26T14:37:41.693Z,4.50
2019-05-26T14:40:12.210Z,3.83
2019-05-26T14:42:41.594Z,2.92
2019-05-26T14:45:11.061Z,2.67
2019-05-26T14:47:40.358Z,3.83
2019-05-26T14:50:10.682Z,3.83
2019-05-26T14:52:40.085Z,2.50
2019-05-26T14:55:09.522Z,3.00
2019-05-26T14:57:38.996Z,3.27
2019-05-26T15:00:09.042Z,3.47
2019-05-26T15:02:38.577Z,6.78
2019-05-26T15:05:08.261Z,4.83
2019-05-26T15:07:39.309Z,2.85
2019-05-26T15:10:10.557Z,3.15
2019-05-26T15:12:39.934Z,3.55
2019-05-26T15:15:10.811Z,3.65
2019-05-26T15:17:40.203Z,3.50
2019-05-26T15:20:09.658Z,3.60
2019-05-26T15:22:39.063Z,5.10
2019-05-26T15:25:08.871Z,2.22
2019-05-26T15:27:38.265Z,3.60
2019-05-26T15:30:09.530Z,1.98
2019-05-26T15:32:38.923Z,5.95
2019-05-26T15:35:09.801Z,1.80
2019-05-26T15:37:39.184Z,4.85
2019-05-26T15:40:10.249Z,3.45
2019-05-26T15:42:40.633Z,3.37
2019-05-26T15:45:10.589Z,3.25
2019-05-26T15:47:39.948Z,3.20
2019-05-26T15:50:13.430Z,2.25
2019-05-26T15:52:40.986Z,3.05
2019-05-26T15:55:10.803Z,1.95
2019-05-26T15:57:40.206Z,3.37
2019-05-26T16:00:10.302Z,4.53
2019-05-26T16:02:39.688Z,2.55
2019-05-26T16:05:09.103Z,3.30
2019-05-26T16:07:38.457Z,3.42
2019-05-26T16:10:08.122Z,2.27
2019-05-26T16:12:37.519Z,2.37
2019-05-26T16:15:06.999Z,4.87
2019-05-26T16:17:38.709Z,2.62
2019-05-26T16:20:07.786Z,2.30
2019-05-26T16:22:37.136Z,7.12
2019-05-26T16:25:07.141Z,2.90
2019-05-26T16:27:36.500Z,4.25
2019-05-26T16:30:09.075Z,3.58
2019-05-26T16:32:38.484Z,3.20
2019-05-26T16:35:08.191Z,4.37
2019-05-26T16:37:37.593Z,3.42
2019-05-26T16:40:07.193Z,4.00
2019-05-26T16:42:36.613Z,3.85
2019-05-26T16:45:06.271Z,3.08
2019-05-26T16:47:35.720Z,1.60
2019-05-26T16:50:05.669Z,2.25
2019-05-26T16:52:35.052Z,2.12
2019-05-26T16:55:04.858Z,4.53
2019-05-26T16:57:34.252Z,2.75
2019-05-26T17:00:03.618Z,1.72
2019-05-26T17:02:33.013Z,3.55
2019-05-26T17:05:02.322Z,3.80
2019-05-26T17:07:31.731Z,1.92
2019-05-26T17:10:01.140Z,3.98
2019-05-26T17:12:30.516Z,3.70
2019-05-26T17:14:59.915Z,2.05
2019-05-26T17:17:29.252Z,2.33
2019-05-26T17:20:00.391Z,2.15
2019-05-26T17:22:29.830Z,1.92
2019-05-26T17:25:00.020Z,2.83
2019-05-26T17:27:29.445Z,2.33
2019-05-26T17:29:58.808Z,2.80
2019-05-26T17:32:28.169Z,2.52
2019-05-26T17:34:57.597Z,4.33
2019-05-26T17:37:26.909Z,3.17
2019-05-26T17:39:56.280Z,2.72
2019-05-26T17:42:25.683Z,1.85
2019-05-26T17:44:55.127Z,2.35
2019-05-26T17:47:30.137Z,2.33
2019-05-26T17:49:55.609Z,4.42
2019-05-26T17:52:25.084Z,2.27
2019-05-26T17:54:54.543Z,2.00
2019-05-26T17:57:23.930Z,1.87
2019-05-26T17:59:53.304Z,1.77
2019-05-26T18:02:22.705Z,2.42
2019-05-26T18:04:52.080Z,1.92
2019-05-26T18:07:21.427Z,2.45
2019-05-26T18:09:50.797Z,2.00
2019-05-26T18:12:20.417Z,1.67
2019-05-26T18:14:49.818Z,2.85
2019-05-26T18:17:19.155Z,2.87
2019-05-26T18:19:48.743Z,2.10
2019-05-26T18:22:18.136Z,1.65
2019-05-26T18:24:56.272Z,3.72
2019-05-26T18:27:18.605Z,4.85
2019-05-26T18:29:47.967Z,3.47
2019-05-26T18:32:17.366Z,1.40
2019-05-26T18:34:46.892Z,3.50
2019-05-26T18:37:16.304Z,4.08
2019-05-26T18:39:45.685Z,2.87
2019-05-26T18:42:15.042Z,3.22
2019-05-26T18:44:44.473Z,2.85
2019-05-26T18:47:13.830Z,3.00
2019-05-26T18:49:43.191Z,2.85
2019-05-26T18:52:12.549Z,2.87
2019-05-26T18:54:41.934Z,3.77
2019-05-26T18:57:14.099Z,4.85
2019-05-26T18:59:43.532Z,1.72
2019-05-26T19:02:12.971Z,2.52
2019-05-26T19:04:42.374Z,1.60
2019-05-26T19:07:11.750Z,2.47
2019-05-26T19:09:41.156Z,3.27
2019-05-26T19:12:10.692Z,1.60
2019-05-26T19:14:40.119Z,3.60
2019-05-26T19:17:09.818Z,2.50
2019-05-26T19:19:39.200Z,2.55
2019-05-26T19:22:08.644Z,2.40
2019-05-26T19:24:38.078Z,1.77
2019-05-26T19:27:07.497Z,2.55
2019-05-26T19:29:36.920Z,2.42
2019-05-26T19:32:06.498Z,2.83
2019-05-26T19:34:35.935Z,2.98
2019-05-26T19:37:05.305Z,2.92
2019-05-26T19:39:34.680Z,3.87
2019-05-26T19:42:04.111Z,2.85
2019-05-26T19:44:36.315Z,1.57
2019-05-26T19:47:05.788Z,1.62
2019-05-26T19:49:35.155Z,2.10
2019-05-26T19:52:04.582Z,1.65
2019-05-26T19:54:33.959Z,3.33
2019-05-26T19:57:04.172Z,3.60
2019-05-26T19:59:33.562Z,1.60
2019-05-26T20:02:17.368Z,1.45
2019-05-26T20:04:34.000Z,1.75
2019-05-26T20:07:03.532Z,3.40
2019-05-26T20:09:32.917Z,3.80
2019-05-26T20:12:02.360Z,1.57
2019-05-26T20:14:31.796Z,2.62
2019-05-26T20:17:01.131Z,1.67
2019-05-26T20:19:30.495Z,3.12
2019-05-26T20:21:59.854Z,2.95
2019-05-26T20:24:29.191Z,2.00
2019-05-26T20:26:58.560Z,1.85
2019-05-26T20:29:27.871Z,3.52
2019-05-26T20:31:57.287Z,2.60
2019-05-26T20:34:26.694Z,1.75
2019-05-26T20:36:56.101Z,2.55
2019-05-26T20:39:25.501Z,3.22
2019-05-26T20:41:54.912Z,2.33
2019-05-26T20:44:24.358Z,2.17
2019-05-26T20:46:55.041Z,2.37
2019-05-26T20:49:24.471Z,3.45
2019-05-26T20:51:53.851Z,1.80
2019-05-26T20:54:23.222Z,4.83
2019-05-26T20:56:52.580Z,3.10
2019-05-26T20:59:24.391Z,1.92
2019-05-26T21:01:57.547Z,4.10
2019-05-26T21:04:34.466Z,3.27
2019-05-26T21:07:13.524Z,2.00
2019-05-26T21:09:47.826Z,3.42
2019-05-26T21:12:17.229Z,2.42
2019-05-26T21:14:46.654Z,2.15
2019-05-26T21:17:16.042Z,3.67
2019-05-26T21:19:45.471Z,3.05
2019-05-26T21:22:14.883Z,1.60
2019-05-26T21:24:44.276Z,1.87
2019-05-26T21:27:13.619Z,2.77
2019-05-26T21:29:42.998Z,2.10
2019-05-26T21:32:12.367Z,2.22
2019-05-26T21:34:41.850Z,3.12
2019-05-26T21:37:11.209Z,1.75
2019-05-26T21:39:40.582Z,2.92
2019-05-26T21:42:09.958Z,3.98
2019-05-26T21:44:39.365Z,3.33
2019-05-26T21:47:08.709Z,1.85
2019-05-26T21:49:38.004Z,4.17
2019-05-26T21:52:07.303Z,4.03
2019-05-26T21:54:41.243Z,3.35
2019-05-26T21:57:07.722Z,2.50
2019-05-26T21:59:37.133Z,1.90
2019-05-26T22:02:06.635Z,3.27
2019-05-26T22:04:36.011Z,2.27
2019-05-26T22:07:05.674Z,3.95
2019-05-26T22:09:35.016Z,3.25
2019-05-26T22:12:04.469Z,2.37
2019-05-26T22:14:33.923Z,3.92
2019-05-26T22:17:03.331Z,2.80
2019-05-26T22:19:32.741Z,2.25
2019-05-26T22:22:02.152Z,4.12
2019-05-26T22:24:31.472Z,3.08
2019-05-26T22:27:00.844Z,4.10
2019-05-26T22:29:30.238Z,2.77
2019-05-26T22:32:00.340Z,2.77
2019-05-26T22:34:29.627Z,2.22
2019-05-26T22:36:58.993Z,2.72
2019-05-26T22:39:28.542Z,1.95
2019-05-26T22:41:57.972Z,2.58
2019-05-26T22:44:27.351Z,3.95
2019-05-26T22:46:56.702Z,3.00
2019-05-26T22:49:26.072Z,2.02
2019-05-26T22:51:55.435Z,2.45
2019-05-26T22:54:24.779Z,2.80
2019-05-26T22:56:54.162Z,3.25
2019-05-26T22:59:23.544Z,3.00
2019-05-26T23:01:52.872Z,2.02
2019-05-26T23:04:22.218Z,3.98
2019-05-26T23:06:54.508Z,4.60
2019-05-26T23:09:23.872Z,2.72
2019-05-26T23:11:53.690Z,2.40
2019-05-26T23:14:23.317Z,3.17
2019-05-26T23:16:52.623Z,3.17
2019-05-26T23:19:21.983Z,3.33
2019-05-26T23:21:51.501Z,3.30
2019-05-26T23:24:20.830Z,3.92
2019-05-26T23:26:50.224Z,7.22
2019-05-26T23:29:19.575Z,3.12
2019-05-26T23:31:49.088Z,4.53
2019-05-26T23:34:18.607Z,2.70
2019-05-26T23:36:48.036Z,3.17
2019-05-26T23:39:17.359Z,3.60
2019-05-26T23:41:46.727Z,3.67
2019-05-26T23:44:16.155Z,2.92
2019-05-26T23:46:45.528Z,2.92
2019-05-26T23:49:14.836Z,2.87
2019-05-26T23:51:44.193Z,3.17
2019-05-26T23:54:13.568Z,3.45
2019-05-26T23:56:42.946Z,3.75
2019-05-26T23:59:12.328Z,1.98
